Time;durP1;ratioP1;P1;durP2;ratioP2;P2;SDS_P1;SDS_P2;PMS_P1;PMS_P2;Temp;Humidity;BMP_temperature;BMP_pressure;BME280_temperature;BME280_humidity;BME280_pressure;Samples;Min_cycle;Max_cycle;Signal;HPM_P1;HPM_P2
2024/01/27 00:01:13;;;;;;;7.47;2.22;;;6.70;99.90;;;;;;5033104;28;20242;-76
2024/01/27 00:03:41;;;;;;;9.05;1.85;;;6.60;99.90;;;;;;5035353;28;20225;-75
2024/01/27 00:06:08;;;;;;;6.57;2.03;;;6.60;99.90;;;;;;5038306;28;20613;-76
2024/01/27 00:08:36;;;;;;;10.57;1.83;;;6.60;99.90;;;;;;5035430;28;20242;-75
2024/01/27 00:11:06;;;;;;;5.85;1.98;;;6.60;99.90;;;;;;5038582;28;20206;-76
2024/01/27 00:13:34;;;;;;;9.63;1.88;;;6.60;99.90;;;;;;5034234;28;20233;-76
2024/01/27 00:16:01;;;;;;;13.90;1.92;;;6.60;99.90;;;;;;5039229;28;20238;-76
2024/01/27 00:18:29;;;;;;;9.88;2.22;;;6.60;99.90;;;;;;5033880;28;20637;-77
2024/01/27 00:20:57;;;;;;;6.60;2.10;;;6.60;99.90;;;;;;5039529;28;20238;-77
2024/01/27 00:23:25;;;;;;;7.25;1.85;;;6.60;99.90;;;;;;5048083;22;20226;-60
2024/01/27 00:25:53;;;;;;;7.15;2.35;;;6.50;99.90;;;;;;5033034;28;20203;-59
2024/01/27 00:28:22;;;;;;;12.07;3.15;;;6.50;99.90;;;;;;5032577;28;20318;-60
2024/01/27 00:30:50;;;;;;;11.95;2.30;;;6.50;99.90;;;;;;5032895;28;20203;-60
2024/01/27 00:33:18;;;;;;;8.35;2.15;;;6.50;99.90;;;;;;5016163;28;20763;-60
2024/01/27 00:35:46;;;;;;;6.78;1.80;;;6.50;99.90;;;;;;5024773;28;20225;-60
2024/01/27 00:38:14;;;;;;;16.42;2.65;;;6.50;99.90;;;;;;5032056;28;20728;-59
2024/01/27 00:40:42;;;;;;;12.32;2.20;;;6.40;99.90;;;;;;5032519;28;20203;-59
2024/01/27 00:43:10;;;;;;;10.75;2.10;;;6.40;99.90;;;;;;5031703;28;20262;-60
2024/01/27 00:45:39;;;;;;;9.20;2.28;;;6.40;99.90;;;;;;5032313;28;20246;-59
2024/01/27 00:48:08;;;;;;;6.65;1.88;;;6.20;99.90;;;;;;5032454;28;20262;-60
2024/01/27 00:50:36;;;;;;;5.45;1.48;;;6.10;99.90;;;;;;5032607;28;20234;-59
2024/01/27 00:53:04;;;;;;;13.50;2.03;;;6.00;99.90;;;;;;5031900;28;20289;-59
2024/01/27 00:55:32;;;;;;;9.25;2.00;;;5.90;99.90;;;;;;5032225;28;20714;-59
2024/01/27 00:57:59;;;;;;;6.75;1.80;;;5.80;99.90;;;;;;5032180;28;20265;-59
2024/01/27 01:00:27;;;;;;;6.03;1.65;;;5.70;99.90;;;;;;5032021;28;20211;-59
2024/01/27 01:02:57;;;;;;;8.27;2.05;;;5.70;99.90;;;;;;5031707;28;20224;-59
2024/01/27 01:05:24;;;;;;;4.85;1.60;;;5.60;99.90;;;;;;5032195;28;20203;-60
2024/01/27 01:07:52;;;;;;;5.05;1.48;;;5.50;99.90;;;;;;5032031;28;20246;-59
2024/01/27 01:10:20;;;;;;;7.07;1.63;;;5.40;99.90;;;;;;5032027;28;20238;-59
2024/01/27 01:12:48;;;;;;;10.40;2.10;;;5.40;99.90;;;;;;5031556;28;20293;-60
2024/01/27 01:15:16;;;;;;;2.40;1.63;;;5.30;99.90;;;;;;5031953;28;20238;-60
2024/01/27 01:17:44;;;;;;;8.52;2.05;;;5.30;99.90;;;;;;5031795;28;20293;-59
2024/01/27 01:20:12;;;;;;;12.88;1.63;;;5.20;99.90;;;;;;5031866;28;20210;-58
2024/01/27 01:22:40;;;;;;;7.35;1.67;;;5.10;99.90;;;;;;5031240;28;20214;-58
2024/01/27 01:25:08;;;;;;;7.93;2.17;;;5.10;99.90;;;;;;5031894;28;20238;-59
2024/01/27 01:27:36;;;;;;;8.68;2.05;;;5.00;99.90;;;;;;5031417;28;20215;-60
2024/01/27 01:30:05;;;;;;;6.03;1.98;;;5.00;99.90;;;;;;5031958;28;20237;-59
2024/01/27 01:32:33;;;;;;;13.43;2.17;;;4.90;99.90;;;;;;5031170;28;20688;-60
2024/01/27 01:35:01;;;;;;;15.73;2.17;;;4.80;99.90;;;;;;5031792;28;20285;-60
2024/01/27 01:37:30;;;;;;;8.77;1.90;;;4.80;99.90;;;;;;5031703;28;20779;-59
2024/01/27 01:39:58;;;;;;;13.23;2.25;;;4.70;99.90;;;;;;5031366;28;20250;-59
2024/01/27 01:42:26;;;;;;;11.30;1.48;;;4.60;99.90;;;;;;5031498;28;20242;-60
2024/01/27 01:44:54;;;;;;;6.55;1.70;;;4.60;99.90;;;;;;5031294;28;20240;-59
2024/01/27 01:47:22;;;;;;;12.52;1.50;;;4.60;99.90;;;;;;5031540;28;20297;-60
2024/01/27 01:49:50;;;;;;;5.57;1.30;;;4.50;99.90;;;;;;5030712;28;20233;-59
2024/01/27 01:52:20;;;;;;;6.53;1.52;;;4.50;99.90;;;;;;5031202;28;20211;-59
2024/01/27 01:54:50;;;;;;;4.85;1.10;;;4.40;99.90;;;;;;5018406;28;20209;-59
2024/01/27 01:57:18;;;;;;;8.05;1.27;;;4.40;99.90;;;;;;5031579;28;20211;-59
2024/01/27 01:59:46;;;;;;;5.72;1.95;;;4.40;99.90;;;;;;5022796;28;20737;-59
2024/01/27 02:02:14;;;;;;;8.77;1.38;;;4.30;99.90;;;;;;5025414;28;20203;-60
2024/01/27 02:04:42;;;;;;;8.20;1.63;;;4.20;99.90;;;;;;5030018;28;20256;-59
2024/01/27 02:07:10;;;;;;;11.88;1.70;;;4.20;99.90;;;;;;5023259;28;20302;-60
2024/01/27 02:09:38;;;;;;;11.77;1.40;;;4.20;99.90;;;;;;5031165;28;20241;-59
2024/01/27 02:12:08;;;;;;;4.75;1.48;;;4.10;99.90;;;;;;5031244;28;20276;-59
2024/01/27 02:14:36;;;;;;;8.77;1.70;;;4.10;99.90;;;;;;5031075;28;20212;-60
2024/01/27 02:17:05;;;;;;;6.38;1.48;;;4.00;99.90;;;;;;5031373;28;20289;-60
2024/01/27 02:19:33;;;;;;;5.05;1.10;;;4.00;99.90;;;;;;5030762;28;20230;-59
2024/01/27 02:22:02;;;;;;;7.15;1.25;;;3.90;99.90;;;;;;5031157;28;20305;-59
2024/01/27 02:24:31;;;;;;;7.80;1.48;;;3.90;99.90;;;;;;5031012;28;20258;-60
2024/01/27 02:26:59;;;;;;;9.85;1.48;;;3.80;99.90;;;;;;5031398;28;20345;-59
2024/01/27 02:29:28;;;;;;;5.03;1.35;;;3.70;99.90;;;;;;5030723;28;20704;-58
2024/01/27 02:31:55;;;;;;;9.82;1.45;;;3.70;99.90;;;;;;5024040;28;20218;-59
2024/01/27 02:34:23;;;;;;;8.93;1.85;;;3.70;99.90;;;;;;5031058;28;20206;-59
2024/01/27 02:36:51;;;;;;;3.63;1.25;;;3.60;99.90;;;;;;5022965;28;20213;-59
2024/01/27 02:39:19;;;;;;;12.68;1.90;;;3.60;99.90;;;;;;5030860;28;20226;-60
2024/01/27 02:41:49;;;;;;;7.38;1.67;;;3.50;99.90;;;;;;5030906;28;20211;-59
2024/01/27 02:44:16;;;;;;;6.63;1.63;;;3.50;99.90;;;;;;5030646;28;20226;-59
2024/01/27 02:46:44;;;;;;;10.93;2.13;;;3.50;99.90;;;;;;5030858;28;20684;-58
2024/01/27 02:49:12;;;;;;;15.05;1.98;;;3.50;99.90;;;;;;5030636;28;20735;-59
2024/01/27 02:51:40;;;;;;;3.60;1.50;;;3.50;99.90;;;;;;5023194;28;20262;-59
2024/01/27 02:54:08;;;;;;;20.08;1.65;;;3.50;99.90;;;;;;5030662;28;20258;-60
2024/01/27 02:56:36;;;;;;;10.43;1.88;;;3.40;99.90;;;;;;5030757;28;20672;-59
2024/01/27 02:59:05;;;;;;;4.18;1.13;;;3.40;99.90;;;;;;5019898;28;20277;-59
2024/01/27 03:01:33;;;;;;;5.78;1.58;;;3.40;99.90;;;;;;5023758;28;20208;-59
2024/01/27 03:04:01;;;;;;;4.90;1.55;;;3.40;99.90;;;;;;5034264;28;20234;-60
2024/01/27 03:06:29;;;;;;;4.20;1.38;;;3.40;99.90;;;;;;5030065;28;20207;-59
2024/01/27 03:08:57;;;;;;;4.68;1.52;;;3.40;99.90;;;;;;5030211;28;20676;-59
2024/01/27 03:11:25;;;;;;;6.80;1.73;;;3.30;99.90;;;;;;5030263;28;20206;-59
2024/01/27 03:13:53;;;;;;;5.35;1.45;;;3.30;99.90;;;;;;5033765;28;20253;-59
2024/01/27 03:16:22;;;;;;;6.35;1.45;;;3.30;99.90;;;;;;5027636;28;20235;-59
2024/01/27 03:18:50;;;;;;;6.45;1.90;;;3.20;99.90;;;;;;5018660;28;20238;-59
2024/01/27 03:21:18;;;;;;;6.25;1.40;;;3.20;99.90;;;;;;5034188;28;20217;-59
2024/01/27 03:23:46;;;;;;;5.22;1.60;;;3.20;99.90;;;;;;5025216;28;20302;-59
2024/01/27 03:26:13;;;;;;;7.65;1.45;;;3.10;99.90;;;;;;5033986;28;20805;-59
2024/01/27 03:28:41;;;;;;;7.60;1.50;;;3.10;99.90;;;;;;5021582;28;20234;-58
2024/01/27 03:31:09;;;;;;;9.82;1.77;;;3.10;99.90;;;;;;5030028;28;20242;-58
2024/01/27 03:33:38;;;;;;;9.88;1.80;;;3.10;99.90;;;;;;5032372;28;20238;-60
2024/01/27 03:36:10;;;;;;;2.97;1.20;;;3.00;99.90;;;;;;5027235;28;20340;-59
2024/01/27 03:38:38;;;;;;;6.18;1.45;;;3.10;99.90;;;;;;5025993;28;20230;-59
2024/01/27 03:41:06;;;;;;;5.97;1.35;;;3.00;99.90;;;;;;5033892;28;20203;-59
2024/01/27 03:43:34;;;;;;;5.85;1.58;;;3.00;99.90;;;;;;5024930;28;20202;-59
2024/01/27 03:46:02;;;;;;;5.15;1.50;;;3.00;99.90;;;;;;5031255;28;20284;-59
2024/01/27 03:48:30;;;;;;;7.82;1.95;;;3.00;99.90;;;;;;5033267;28;20724;-58
2024/01/27 03:51:00;;;;;;;8.77;2.10;;;2.90;99.90;;;;;;5018058;28;20297;-59
2024/01/27 03:53:28;;;;;;;4.25;1.50;;;2.90;99.90;;;;;;5032998;28;20576;-59
2024/01/27 03:55:58;;;;;;;8.88;1.63;;;2.90;99.90;;;;;;5025442;28;20207;-59
2024/01/27 03:58:26;;;;;;;10.23;2.08;;;2.80;99.90;;;;;;5027605;28;20316;-59
2024/01/27 04:00:53;;;;;;;10.63;2.10;;;2.80;99.90;;;;;;5032327;28;20206;-59
2024/01/27 04:03:21;;;;;;;10.75;2.00;;;2.70;99.90;;;;;;5026150;28;20593;-59
2024/01/27 04:05:49;;;;;;;4.15;1.25;;;2.70;99.90;;;;;;5032029;28;20229;-59
2024/01/27 04:08:19;;;;;;;5.07;1.58;;;2.70;99.90;;;;;;5033170;28;20242;-59
2024/01/27 04:10:47;;;;;;;5.40;1.40;;;2.70;99.90;;;;;;5033033;28;20774;-60
2024/01/27 04:13:15;;;;;;;4.40;1.50;;;2.70;99.90;;;;;;5032269;28;20241;-58
2024/01/27 04:15:43;;;;;;;10.82;1.92;;;2.70;99.90;;;;;;5032961;28;20225;-59
2024/01/27 04:18:11;;;;;;;7.28;2.10;;;2.60;99.90;;;;;;5032771;28;20754;-59
2024/01/27 04:20:39;;;;;;;6.28;1.45;;;2.60;99.90;;;;;;5032823;28;20210;-60
2024/01/27 04:23:08;;;;;;;7.93;2.17;;;2.70;99.90;;;;;;5032444;28;20214;-59
2024/01/27 04:25:37;;;;;;;3.08;1.73;;;2.60;99.90;;;;;;5032821;28;20226;-59
2024/01/27 04:28:05;;;;;;;7.10;2.15;;;2.60;99.90;;;;;;5032577;28;20230;-59
2024/01/27 04:30:33;;;;;;;9.32;2.05;;;2.50;99.90;;;;;;5032878;28;20211;-58
2024/01/27 04:33:01;;;;;;;7.63;1.88;;;2.50;99.90;;;;;;5032327;28;20202;-59
2024/01/27 04:35:29;;;;;;;7.15;1.70;;;2.40;99.90;;;;;;5032869;28;20203;-59
2024/01/27 04:37:58;;;;;;;5.07;1.58;;;2.50;99.90;;;;;;5032722;28;20292;-59
2024/01/27 04:40:25;;;;;;;7.88;1.50;;;2.40;99.90;;;;;;5032406;28;20253;-59
2024/01/27 04:42:55;;;;;;;7.63;2.28;;;2.40;99.90;;;;;;5032190;28;20233;-59
2024/01/27 04:45:23;;;;;;;10.02;2.25;;;2.40;99.90;;;;;;5032154;28;20258;-58
2024/01/27 04:47:51;;;;;;;9.35;2.20;;;2.40;99.90;;;;;;5032284;28;20750;-59
2024/01/27 04:50:19;;;;;;;6.10;1.38;;;2.30;99.90;;;;;;5028675;28;20209;-58
2024/01/27 04:52:46;;;;;;;4.85;1.55;;;2.30;99.90;;;;;;5011771;28;20291;-59
2024/01/27 04:55:14;;;;;;;10.75;1.58;;;2.40;99.90;;;;;;5018066;28;20374;-59
2024/01/27 04:57:42;;;;;;;3.83;1.52;;;2.30;99.90;;;;;;5019971;28;20199;-58
2024/01/27 05:00:13;;;;;;;10.85;1.80;;;2.30;99.90;;;;;;5027072;28;20213;-58
2024/01/27 05:02:41;;;;;;;13.43;2.42;;;2.30;99.90;;;;;;5029549;28;20212;-59
2024/01/27 05:05:10;;;;;;;10.18;2.08;;;2.30;99.90;;;;;;5028854;28;20229;-59
2024/01/27 05:07:38;;;;;;;6.60;1.95;;;2.20;99.90;;;;;;5017230;28;20655;-58
2024/01/27 05:10:07;;;;;;;9.45;1.77;;;2.20;99.90;;;;;;5023463;28;20894;-58
2024/01/27 05:12:34;;;;;;;4.47;1.52;;;2.20;99.90;;;;;;5020423;28;20207;-59
2024/01/27 05:15:02;;;;;;;6.82;1.85;;;2.20;99.90;;;;;;5017488;28;20202;-59
2024/01/27 05:17:32;;;;;;;5.68;2.00;;;2.10;99.90;;;;;;5031882;28;20229;-59
2024/01/27 05:20:00;;;;;;;5.63;1.88;;;2.10;99.90;;;;;;5031757;28;20206;-59
2024/01/27 05:22:28;;;;;;;6.15;2.38;;;2.10;99.90;;;;;;5021610;28;20230;-58
2024/01/27 05:24:55;;;;;;;7.32;2.08;;;2.00;99.90;;;;;;5013793;28;20207;-59
2024/01/27 05:27:23;;;;;;;7.72;2.40;;;2.10;99.90;;;;;;5029666;28;20396;-59
2024/01/27 05:29:51;;;;;;;10.65;2.38;;;2.00;99.90;;;;;;5022911;28;20236;-59
2024/01/27 05:32:19;;;;;;;7.80;2.10;;;2.00;99.90;;;;;;5029355;28;20660;-60
2024/01/27 05:34:48;;;;;;;6.72;1.88;;;2.00;99.90;;;;;;5031285;28;20205;-59
2024/01/27 05:37:16;;;;;;;5.75;1.92;;;2.00;99.90;;;;;;5031664;28;20203;-58
2024/01/27 05:39:44;;;;;;;12.40;1.92;;;2.00;99.90;;;;;;5031138;28;20258;-59
2024/01/27 05:42:12;;;;;;;9.63;2.40;;;2.00;99.90;;;;;;5031525;28;20285;-59
2024/01/27 05:44:40;;;;;;;3.38;1.67;;;2.00;99.90;;;;;;5031395;28;20248;-59
2024/01/27 05:47:10;;;;;;;5.63;2.03;;;2.00;99.90;;;;;;5031615;28;20230;-59
2024/01/27 05:49:39;;;;;;;9.68;2.30;;;1.90;99.90;;;;;;5063428;22;20233;-58
2024/01/27 05:52:08;;;;;;;7.35;1.95;;;1.90;99.90;;;;;;5050971;28;20275;-58
2024/01/27 05:54:36;;;;;;;5.50;2.33;;;1.90;99.90;;;;;;5051274;28;20210;-58
2024/01/27 05:57:05;;;;;;;7.57;2.38;;;1.90;99.90;;;;;;5035166;28;20682;-58
2024/01/27 05:59:32;;;;;;;9.10;2.13;;;1.80;99.90;;;;;;5030792;28;20244;-58
2024/01/27 06:02:01;;;;;;;5.03;1.92;;;1.80;99.90;;;;;;5050779;28;20285;-58
2024/01/27 06:04:31;;;;;;;4.38;2.40;;;1.80;99.90;;;;;;5040987;28;20284;-58
2024/01/27 06:07:00;;;;;;;5.07;2.17;;;1.80;99.90;;;;;;5047422;28;20749;-58
2024/01/27 06:09:29;;;;;;;9.00;2.28;;;1.80;99.90;;;;;;5046005;28;20234;-57
2024/01/27 06:12:00;;;;;;;4.93;1.85;;;1.70;99.90;;;;;;5029819;28;20248;-58
2024/01/27 06:14:28;;;;;;;8.85;2.47;;;1.70;99.90;;;;;;5037464;28;20663;-58
2024/01/27 06:16:55;;;;;;;7.28;2.15;;;1.70;99.90;;;;;;5048689;28;20777;-58
2024/01/27 06:19:23;;;;;;;4.90;2.13;;;1.70;99.90;;;;;;5045197;28;20222;-58
2024/01/27 06:21:51;;;;;;;7.50;2.35;;;1.70;99.90;;;;;;5050725;28;20228;-58
2024/01/27 06:24:19;;;;;;;5.30;2.40;;;1.70;99.90;;;;;;5050891;28;20198;-58
2024/01/27 06:26:48;;;;;;;7.88;2.22;;;1.70;99.90;;;;;;5034213;28;20265;-58
2024/01/27 06:29:18;;;;;;;7.45;2.13;;;1.60;99.90;;;;;;5037908;28;20225;-58
2024/01/27 06:31:46;;;;;;;6.25;2.03;;;1.60;99.90;;;;;;5038284;28;20202;-58
2024/01/27 06:34:14;;;;;;;9.18;2.03;;;1.60;99.90;;;;;;5033203;28;20286;-58
2024/01/27 06:36:42;;;;;;;10.27;2.25;;;1.60;99.90;;;;;;5049697;28;20206;-58
2024/01/27 06:39:10;;;;;;;8.32;2.25;;;1.60;99.90;;;;;;5054548;28;20254;-58
2024/01/27 06:41:38;;;;;;;5.95;2.28;;;1.60;99.90;;;;;;5054599;28;20296;-58
2024/01/27 06:44:08;;;;;;;6.05;2.40;;;1.70;99.90;;;;;;5054441;28;20233;-58
2024/01/27 06:46:36;;;;;;;6.80;2.30;;;1.60;99.90;;;;;;5028269;28;20316;-58
2024/01/27 06:49:04;;;;;;;5.53;2.17;;;1.60;99.90;;;;;;5021563;28;20309;-58
2024/01/27 06:51:32;;;;;;;6.68;2.33;;;1.60;99.90;;;;;;5029510;28;20214;-57
2024/01/27 06:54:00;;;;;;;8.75;2.90;;;1.60;99.90;;;;;;5039974;28;20260;-58
2024/01/27 06:56:28;;;;;;;10.23;2.33;;;1.70;99.90;;;;;;5043130;28;20203;-57
2024/01/27 06:58:55;;;;;;;8.95;2.50;;;1.50;99.90;;;;;;5043844;28;20246;-59
2024/01/27 07:01:25;;;;;;;8.90;2.83;;;1.50;99.90;;;;;;5049080;28;20202;-57
2024/01/27 07:03:53;;;;;;;7.80;2.13;;;1.50;99.90;;;;;;5053994;28;20659;-57
2024/01/27 07:06:21;;;;;;;8.57;2.70;;;1.50;99.90;;;;;;5054104;28;20237;-58
2024/01/27 07:08:49;;;;;;;5.30;2.22;;;1.50;99.90;;;;;;5053812;28;20222;-57
2024/01/27 07:11:16;;;;;;;5.10;2.22;;;1.50;99.90;;;;;;5054046;28;20213;-56
2024/01/27 07:13:44;;;;;;;6.78;2.35;;;1.50;99.90;;;;;;5053426;28;20237;-57
2024/01/27 07:16:12;;;;;;;8.30;2.55;;;1.50;99.90;;;;;;5053897;28;20205;-57
2024/01/27 07:18:41;;;;;;;8.55;3.05;;;1.50;99.90;;;;;;5047760;28;20258;-57
2024/01/27 07:21:09;;;;;;;10.93;3.33;;;1.40;99.90;;;;;;5034282;28;20210;-58
2024/01/27 07:23:37;;;;;;;6.82;2.80;;;1.40;99.90;;;;;;5053148;28;20206;-58
2024/01/27 07:26:05;;;;;;;9.25;2.92;;;1.40;99.90;;;;;;5045213;28;20245;-58
2024/01/27 07:28:34;;;;;;;7.22;3.45;;;1.40;99.90;;;;;;5053707;28;20253;-56
2024/01/27 07:31:02;;;;;;;8.63;3.13;;;1.40;99.90;;;;;;5053110;28;20237;-56
2024/01/27 07:33:29;;;;;;;10.10;3.00;;;1.40;99.90;;;;;;5047915;28;20206;-57
2024/01/27 07:35:59;;;;;;;8.10;3.75;;;1.40;99.90;;;;;;5053359;28;20592;-57
2024/01/27 07:38:27;;;;;;;9.52;3.10;;;1.40;99.90;;;;;;5053101;28;20235;-56
2024/01/27 07:40:55;;;;;;;5.72;3.38;;;1.40;99.90;;;;;;5053696;28;20234;-57
2024/01/27 07:43:24;;;;;;;9.13;3.55;;;1.40;99.90;;;;;;5053114;28;20289;-57
2024/01/27 07:45:53;;;;;;;10.75;3.30;;;1.40;99.90;;;;;;5047679;28;20660;-57
2024/01/27 07:48:21;;;;;;;9.30;3.45;;;1.40;99.90;;;;;;5052149;28;20252;-57
2024/01/27 07:50:50;;;;;;;13.45;4.00;;;1.50;99.90;;;;;;5053202;28;20289;-57
2024/01/27 07:53:19;;;;;;;8.95;2.95;;;1.50;99.90;;;;;;5053039;28;20204;-57
2024/01/27 07:55:47;;;;;;;12.55;3.22;;;1.50;99.90;;;;;;5051945;28;20233;-57
2024/01/27 07:58:15;;;;;;;13.75;4.05;;;1.50;99.90;;;;;;5050527;28;20280;-57
2024/01/27 08:00:43;;;;;;;7.30;3.42;;;1.50;99.90;;;;;;5052421;28;20740;-57
2024/01/27 08:03:11;;;;;;;10.75;4.35;;;1.50;99.90;;;;;;5052187;28;20678;-56
2024/01/27 08:05:39;;;;;;;11.38;3.50;;;1.50;99.90;;;;;;5052107;28;20201;-57
2024/01/27 08:08:07;;;;;;;4.68;3.20;;;1.50;99.90;;;;;;5052606;28;20583;-57
2024/01/27 08:10:36;;;;;;;9.18;3.38;;;1.60;99.90;;;;;;5052715;28;20310;-56
2024/01/27 08:13:04;;;;;;;7.28;3.17;;;1.60;99.90;;;;;;5052840;28;20241;-57
2024/01/27 08:15:32;;;;;;;9.25;3.33;;;1.60;99.90;;;;;;5052714;28;20293;-58
2024/01/27 08:18:00;;;;;;;13.57;3.55;;;1.60;99.90;;;;;;5052892;28;20578;-57
2024/01/27 08:20:28;;;;;;;7.00;3.45;;;1.70;99.90;;;;;;5052764;28;20222;-57
2024/01/27 08:22:56;;;;;;;10.27;3.55;;;1.70;99.90;;;;;;5052907;28;20260;-56
2024/01/27 08:25:24;;;;;;;7.18;3.38;;;1.80;99.90;;;;;;5052567;28;20753;-57
2024/01/27 08:27:53;;;;;;;7.55;3.38;;;1.80;99.90;;;;;;5052683;28;20260;-57
2024/01/27 08:30:21;;;;;;;7.18;3.53;;;1.80;99.90;;;;;;5052305;28;20601;-57
2024/01/27 08:32:49;;;;;;;10.90;4.22;;;1.80;99.90;;;;;;5052092;28;20202;-57
2024/01/27 08:35:17;;;;;;;9.52;4.53;;;1.90;99.90;;;;;;5052090;28;20202;-58
2024/01/27 08:37:45;;;;;;;17.23;4.60;;;2.00;99.90;;;;;;5052522;28;20292;-58
2024/01/27 08:40:13;;;;;;;15.93;4.07;;;2.00;99.90;;;;;;5041971;28;20300;-58
2024/01/27 08:42:42;;;;;;;10.88;4.45;;;2.10;99.90;;;;;;5051498;28;20202;-58
2024/01/27 08:45:12;;;;;;;12.40;3.90;;;2.20;99.90;;;;;;5051563;28;20234;-58
2024/01/27 08:47:40;;;;;;;8.93;4.10;;;2.20;99.90;;;;;;5052157;28;20232;-58
2024/01/27 08:50:09;;;;;;;11.35;4.40;;;2.30;99.90;;;;;;5051493;28;20252;-57
2024/01/27 08:52:37;;;;;;;11.13;4.63;;;2.30;99.90;;;;;;5051368;28;20202;-58
2024/01/27 08:55:07;;;;;;;13.57;4.20;;;2.40;99.90;;;;;;5051453;28;20255;-59
2024/01/27 08:57:35;;;;;;;16.20;4.93;;;2.40;99.90;;;;;;5051845;28;20202;-58
2024/01/27 09:00:03;;;;;;;12.05;4.60;;;2.40;99.90;;;;;;5051282;28;20234;-58
2024/01/27 09:02:32;;;;;;;12.90;4.57;;;2.40;99.90;;;;;;5051234;28;20198;-58
2024/01/27 09:05:00;;;;;;;10.25;4.43;;;2.50;99.90;;;;;;5051357;28;20298;-58
2024/01/27 09:07:29;;;;;;;17.77;5.93;;;2.60;99.90;;;;;;5051830;28;20317;-58
2024/01/27 09:09:57;;;;;;;10.95;5.43;;;2.70;99.90;;;;;;5051113;28;20280;-58
2024/01/27 09:12:25;;;;;;;11.50;4.82;;;2.80;99.90;;;;;;5050810;28;20238;-58
2024/01/27 09:14:54;;;;;;;8.93;4.63;;;2.90;99.90;;;;;;5051309;28;20198;-58
2024/01/27 09:17:22;;;;;;;10.57;4.07;;;3.00;99.90;;;;;;5051133;28;20216;-58
2024/01/27 09:19:51;;;;;;;13.43;4.40;;;3.10;99.90;;;;;;5051398;28;20226;-57
2024/01/27 09:22:19;;;;;;;10.60;4.70;;;3.20;99.90;;;;;;5051011;28;20209;-57
2024/01/27 09:24:47;;;;;;;15.27;4.90;;;3.40;99.90;;;;;;5050928;28;20647;-58
2024/01/27 09:27:15;;;;;;;11.55;4.68;;;3.50;99.90;;;;;;5051435;28;20257;-57
2024/01/27 09:29:42;;;;;;;6.00;3.78;;;3.70;99.90;;;;;;5051039;28;20698;-58
2024/01/27 09:32:11;;;;;;;19.40;4.28;;;3.80;99.90;;;;;;5050645;28;20267;-57
2024/01/27 09:34:38;;;;;;;6.60;2.28;;;3.90;99.90;;;;;;5051114;28;20385;-56
2024/01/27 09:37:08;;;;;;;12.95;3.10;;;4.20;99.90;;;;;;5051215;28;20630;-58
2024/01/27 09:39:36;;;;;;;13.95;3.42;;;5.00;99.90;;;;;;5050754;28;20226;-58
2024/01/27 09:42:06;;;;;;;13.50;4.00;;;5.20;99.90;;;;;;5050389;28;20214;-59
2024/01/27 09:44:33;;;;;;;11.38;2.97;;;5.30;99.90;;;;;;5051193;28;20210;-59
2024/01/27 09:47:01;;;;;;;8.88;3.60;;;5.20;99.90;;;;;;5050781;28;20268;-59
2024/01/27 09:49:29;;;;;;;10.27;3.63;;;5.20;99.90;;;;;;5050636;28;20780;-58
2024/01/27 09:51:57;;;;;;;14.60;3.10;;;5.20;99.90;;;;;;5050336;28;20297;-58
2024/01/27 09:54:26;;;;;;;9.32;3.40;;;5.30;99.90;;;;;;5050981;28;20249;-59
2024/01/27 09:56:55;;;;;;;18.80;3.08;;;5.40;99.90;;;;;;5051156;28;20206;-59
2024/01/27 09:59:23;;;;;;;15.80;3.40;;;5.40;99.90;;;;;;5050937;28;20225;-59
2024/01/27 10:01:51;;;;;;;13.82;3.50;;;5.50;99.90;;;;;;5050556;28;20202;-58
2024/01/27 10:04:19;;;;;;;11.05;3.70;;;5.60;99.90;;;;;;5050625;28;20232;-58
2024/01/27 10:06:47;;;;;;;12.13;4.03;;;5.80;99.90;;;;;;5051335;28;20198;-59
2024/01/27 10:09:16;;;;;;;9.43;3.67;;;6.10;99.90;;;;;;5050494;28;20234;-59
2024/01/27 10:11:47;;;;;;;10.43;3.17;;;6.50;99.90;;;;;;5052110;28;20710;-58
2024/01/27 10:14:14;;;;;;;13.40;3.17;;;6.90;99.90;;;;;;5054709;28;20237;-59
2024/01/27 10:16:43;;;;;;;11.40;2.90;;;7.20;99.90;;;;;;5054972;28;20634;-59
2024/01/27 10:19:14;;;;;;;11.07;3.50;;;7.40;99.90;;;;;;5054671;28;20227;-59
2024/01/27 10:21:42;;;;;;;15.77;3.70;;;7.70;99.90;;;;;;5054388;28;20236;-59
2024/01/27 10:24:10;;;;;;;14.70;3.28;;;7.90;99.90;;;;;;5054680;28;20212;-60
2024/01/27 10:26:38;;;;;;;9.15;2.92;;;8.00;99.90;;;;;;5054709;28;20205;-59
2024/01/27 10:29:07;;;;;;;13.25;3.30;;;8.00;99.90;;;;;;5054455;28;20249;-56
2024/01/27 10:31:35;;;;;;;11.35;3.28;;;7.90;99.90;;;;;;5053781;28;20202;-60
2024/01/27 10:34:08;;;;;;;11.20;3.80;;;7.90;99.90;;;;;;5054742;28;20229;-59
2024/01/27 10:36:40;;;;;;;10.23;3.25;;;7.90;99.90;;;;;;5054466;28;20202;-59
2024/01/27 10:39:16;;;;;;;16.67;3.67;;;7.80;99.90;;;;;;5054447;28;20226;-59
2024/01/27 10:41:45;;;;;;;9.80;3.95;;;7.80;99.90;;;;;;5053603;28;20215;-59
2024/01/27 10:44:15;;;;;;;11.32;3.28;;;7.80;99.90;;;;;;5054394;28;20206;-59
2024/01/27 10:46:44;;;;;;;10.80;3.22;;;7.90;99.90;;;;;;5054446;28;20212;-59
2024/01/27 10:49:13;;;;;;;12.85;3.17;;;8.00;99.90;;;;;;5053821;28;20317;-59
2024/01/27 10:51:44;;;;;;;9.63;2.92;;;8.10;99.90;;;;;;5052967;28;20613;-59
2024/01/27 10:54:14;;;;;;;9.98;3.08;;;8.00;99.90;;;;;;5054151;28;20301;-59
2024/01/27 10:56:43;;;;;;;17.17;3.10;;;7.80;99.90;;;;;;5053348;28;20256;-59
2024/01/27 10:59:11;;;;;;;14.73;5.25;;;7.80;99.90;;;;;;5054261;28;20221;-59
2024/01/27 11:01:40;;;;;;;14.80;3.40;;;7.70;99.90;;;;;;5054107;28;20234;-59
2024/01/27 11:04:09;;;;;;;12.32;3.10;;;7.70;99.90;;;;;;5054315;28;20693;-58
2024/01/27 11:06:37;;;;;;;13.65;3.13;;;7.80;99.90;;;;;;5054103;28;20206;-59
2024/01/27 11:09:05;;;;;;;7.95;2.85;;;7.90;99.90;;;;;;5054183;28;20238;-59
2024/01/27 11:11:33;;;;;;;9.90;2.72;;;8.00;99.90;;;;;;5053872;28;20232;-59
2024/01/27 11:14:01;;;;;;;18.80;3.05;;;8.10;99.90;;;;;;5049237;28;20647;-59
2024/01/27 11:16:29;;;;;;;12.40;3.58;;;8.20;99.90;;;;;;5044609;28;20384;-59
2024/01/27 11:18:58;;;;;;;12.52;3.53;;;8.30;99.90;;;;;;5038562;28;20284;-59
2024/01/27 11:21:26;;;;;;;15.13;3.15;;;8.40;99.90;;;;;;5033319;28;20202;-59
2024/01/27 11:23:54;;;;;;;9.38;2.80;;;8.70;99.90;;;;;;5044793;28;20202;-59
2024/01/27 11:26:22;;;;;;;9.93;3.10;;;9.10;99.90;;;;;;5038948;28;20210;-59
2024/01/27 11:28:51;;;;;;;10.68;2.80;;;9.60;99.90;;;;;;5033020;28;20230;-59
2024/01/27 11:31:19;;;;;;;10.75;3.20;;;9.80;99.90;;;;;;5049518;28;20205;-59
2024/01/27 11:33:50;;;;;;;7.07;2.92;;;9.80;99.90;;;;;;5049193;28;20656;-60
2024/01/27 11:36:23;;;;;;;15.88;3.92;;;9.70;99.90;;;;;;5052884;28;20865;-59
2024/01/27 11:38:53;;;;;;;12.90;2.53;;;9.50;99.90;;;;;;5045568;28;20232;-59
2024/01/27 11:41:27;;;;;;;10.57;2.63;;;9.30;99.90;;;;;;5045999;28;20211;-59
2024/01/27 11:43:55;;;;;;;9.77;2.97;;;9.00;99.90;;;;;;5028012;28;20221;-59
2024/01/27 11:46:23;;;;;;;12.90;4.78;;;8.80;99.90;;;;;;5027291;28;20225;-59
2024/01/27 11:48:51;;;;;;;14.70;3.28;;;8.60;99.90;;;;;;5035666;28;21561;-58
2024/01/27 11:51:19;;;;;;;12.48;3.40;;;8.40;99.90;;;;;;5034577;28;20697;-59
2024/01/27 11:53:49;;;;;;;12.10;3.17;;;8.30;99.90;;;;;;5031379;28;20281;-58
2024/01/27 11:56:17;;;;;;;9.57;2.55;;;8.20;99.90;;;;;;5074478;22;20225;-75
2024/01/27 11:58:49;;;;;;;4.13;0.95;;;8.10;99.90;;;;;;5076457;28;20216;-72
2024/01/27 12:01:17;;;;;;;12.82;2.28;;;8.50;99.90;;;;;;5070228;28;20206;-73
2024/01/27 12:03:45;;;;;;;10.23;2.58;;;9.80;99.90;;;;;;5048976;28;20289;-72
2024/01/27 12:06:13;;;;;;;7.68;2.00;;;10.50;99.90;;;;;;5050956;28;20202;-73
2024/01/27 12:08:46;;;;;;;7.80;2.42;;;10.90;99.90;;;;;;5052263;28;20261;-73
2024/01/27 12:11:16;;;;;;;9.13;2.72;;;11.00;99.90;;;;;;5047195;28;20202;-75
2024/01/27 12:13:49;;;;;;;9.07;2.50;;;11.10;99.90;;;;;;5048680;28;20639;-76
2024/01/27 12:16:17;;;;;;;11.82;3.10;;;11.00;99.90;;;;;;5045385;28;20238;-76
2024/01/27 12:18:45;;;;;;;10.30;2.90;;;10.50;99.90;;;;;;5051472;28;20224;-75
2024/01/27 12:21:13;;;;;;;10.23;2.78;;;9.90;99.90;;;;;;5043070;28;20302;-76
2024/01/27 12:23:54;;;;;;;10.75;3.20;;;9.30;99.90;;;;;;5048728;28;20317;-74
2024/01/27 12:26:23;;;;;;;10.55;2.47;;;9.00;99.90;;;;;;5051586;28;20202;-74
2024/01/27 12:28:51;;;;;;;14.43;2.75;;;8.80;99.90;;;;;;5052567;28;20234;-74
2024/01/27 12:31:19;;;;;;;14.98;2.50;;;8.70;99.90;;;;;;5052156;28;20202;-74
2024/01/27 12:33:50;;;;;;;11.68;2.70;;;8.80;99.90;;;;;;5051495;28;20241;-73
2024/01/27 12:36:20;;;;;;;11.68;2.90;;;8.80;99.90;;;;;;5047454;28;20206;-73
2024/01/27 12:38:53;;;;;;;13.60;2.85;;;8.90;99.90;;;;;;5052105;28;20651;-73
2024/01/27 12:41:22;;;;;;;11.52;2.95;;;8.80;99.90;;;;;;5051857;28;20214;-74
2024/01/27 12:43:50;;;;;;;10.38;2.63;;;8.80;99.90;;;;;;5052197;28;20202;-74
2024/01/27 12:46:18;;;;;;;14.52;2.70;;;8.70;99.90;;;;;;5052046;28;20206;-73
2024/01/27 12:48:46;;;;;;;13.32;3.22;;;8.70;99.90;;;;;;5051759;28;20237;-74
2024/01/27 12:51:14;;;;;;;13.98;3.35;;;8.60;99.90;;;;;;5051714;28;20240;-74
2024/01/27 12:53:43;;;;;;;14.68;2.70;;;8.40;99.90;;;;;;5051516;28;20222;-74
2024/01/27 12:56:12;;;;;;;14.05;3.42;;;8.30;99.90;;;;;;5051193;28;20214;-73
2024/01/27 12:58:41;;;;;;;8.65;3.47;;;8.20;99.90;;;;;;5051327;28;20753;-74